»·PEaware :: N234CA KHAF-KMRY

N234CA :: KHAF-KMRY

FLIGHT INFORMATION

Flight Status: Arrived
Operator: Privately registered:
United States
More flights under this callsign
Pilot: Colin T. (23854)
Aircraft: CESSNA T210 TURBO CENTURION
(T210)
More flights by this aircraft type
Origin: KHAF Half Moon Bay
United States
Destination: KMRY Monterey Peninsula
United States
More flights between these airports :: More routes between these airports
Route: OSI V25 SNS HIXAR
File this flight plan on PilotEdge
Remarks:
Altitude:
(Current/Filed)
7,000ft
Speed:
(Current/Filed)
167kts
Departed: 13-Feb-20 09:01 PM
Arrived: 13-Feb-20 09:44 PM
Distance/Time
Traveled:
64nm/0:42
Distance/Time
To Go:
Arrived

Flight Plot

Page will automatically refresh every two minutes.

Flight plan parsing failed; only flown route is shown


Map Options




Map Legend


Flown Route
Filed Route
Departure Airport
Arrival Airport
Navaid (VOR, NDB)
Fix

Horizontal Profiles

Position Reports

Time Latitude Longitude Heading Altitude Ground
Speed
13-Feb-20 20:53 37.513765 -122.495940 125 67ft 0kts
13-Feb-20 20:54 37.513765 -122.495940 125 67ft 0kts
13-Feb-20 20:55 37.513660 -122.495892 215 67ft 3kts
13-Feb-20 20:56 37.513983 -122.496918 305 67ft 0kts
13-Feb-20 20:57 37.513988 -122.496928 305 67ft 1kts
13-Feb-20 20:58 37.517235 -122.502952 305 67ft 22kts
13-Feb-20 20:59 37.518021 -122.506532 138 67ft 15kts
13-Feb-20 21:00 37.502068 -122.486659 133 1091ft 90kts
13-Feb-20 21:01 37.484357 -122.461456 134 2494ft 108kts
13-Feb-20 21:02 37.468955 -122.426279 112 3824ft 124kts
13-Feb-20 21:03 37.451421 -122.388045 126 5130ft 128kts
13-Feb-20 21:04 37.432300 -122.353146 126 6392ft 112kts
13-Feb-20 21:05 37.413320 -122.318828 126 7016ft 142kts
13-Feb-20 21:06 37.385514 -122.279095 152 7006ft 160kts
13-Feb-20 21:07 37.344001 -122.256658 159 7000ft 164kts
13-Feb-20 21:08 37.301541 -122.235180 159 6997ft 165kts
13-Feb-20 21:09 37.258865 -122.213625 159 6994ft 165kts
13-Feb-20 21:10 37.216225 -122.192091 158 6993ft 165kts
13-Feb-20 21:11 37.173492 -122.170563 159 6991ft 165kts
13-Feb-20 21:12 37.130706 -122.149025 158 6991ft 166kts
13-Feb-20 21:14 37.069520 -122.110196 135 6991ft 167kts
13-Feb-20 21:15 37.020555 -122.048206 135 6990ft 167kts
13-Feb-20 21:16 36.987823 -122.007073 135 6990ft 167kts
13-Feb-20 21:17 36.955134 -121.966028 135 6990ft 165kts
13-Feb-20 21:19 36.922708 -121.925452 135 6990ft 164kts
13-Feb-20 21:20 36.890370 -121.884973 135 6990ft 164kts
13-Feb-20 21:21 36.857997 -121.844613 135 6991ft 164kts
13-Feb-20 21:22 36.825557 -121.804145 135 6990ft 165kts
13-Feb-20 21:23 36.793168 -121.763775 135 6990ft 165kts
13-Feb-20 21:24 36.760739 -121.723405 135 6990ft 165kts
13-Feb-20 21:25 36.728231 -121.682984 135 6991ft 165kts
13-Feb-20 21:26 36.695736 -121.642584 135 6991ft 165kts
13-Feb-20 21:27 36.659296 -121.627405 236 6988ft 162kts
13-Feb-20 21:28 36.659996 -121.682826 267 6991ft 162kts
13-Feb-20 21:29 36.657753 -121.738077 266 6420ft 158kts
13-Feb-20 21:30 36.655475 -121.788000 266 5329ft 133kts
13-Feb-20 21:31 36.653386 -121.833366 266 4129ft 130kts
13-Feb-20 21:32 36.651335 -121.877053 266 3585ft 117kts
13-Feb-20 21:33 36.649460 -121.916634 266 3590ft 113kts
13-Feb-20 21:34 36.647593 -121.956089 266 3592ft 116kts
13-Feb-20 21:35 36.645664 -121.996810 266 3591ft 118kts
13-Feb-20 21:36 36.636063 -122.036191 247 3052ft 124kts
13-Feb-20 21:37 36.639036 -122.070003 355 2569ft 112kts
13-Feb-20 21:38 36.646951 -122.037535 96 2582ft 119kts
13-Feb-20 21:39 36.638479 -121.996880 112 2369ft 130kts
13-Feb-20 21:39 36.626638 -121.961715 113 1877ft 132kts
13-Feb-20 21:40 36.614026 -121.924258 114 1435ft 95kts
13-Feb-20 21:42 36.603623 -121.893407 113 910ft 81kts
13-Feb-20 21:42 36.596550 -121.872070 115 569ft 79kts
13-Feb-20 21:43 36.588687 -121.849425 115 259ft 40kts
13-Feb-20 21:44 36.587130 -121.847246 125 259ft 6kts
13-Feb-20 21:45 36.585781 -121.846538 203 259ft 4kts
13-Feb-20 21:46 36.585296 -121.846882 294 259ft 0kts
13-Feb-20 21:47 36.585296 -121.846882 294 259ft 0kts
13-Feb-20 21:48 36.585296 -121.846882 294 259ft 0kts

Navigation Log

Ident Type
Flight plan parsing failed, navigation log unavailable